Bilhorod-Dnistrovs'kyy, Ukraine
Current Conditions -  °F | °C
As of 2:00 PM on Saturday 01 Nov 2014 (Local Time) from UKOO Reporting Station
Broken Clouds Broken Clouds  
Wind Chill: 38°   Ceiling: 2500
Heat Index: 45°   Visibility: 6mi
Dew Point: 32°   Wind: 16mph
Humidity: 61%   Direction: 350°N
Pressure: 30.18"   Gusts: NA
Location:  46.2°N, 30.35°E
Report Text: UKOO 011100Z 35007MPS 9999 BKN025 07/00 Q1022 34090060 NOSIG
Loading
Personal Weather Stations






























Interactive Weather Map
Tropical Storm Tracking
New forecast layout! Learn more

10-Day Weather Forecast

Advertisements
Track Severe Weather on mobile